sensor_id;sensor_type;location;lat;lon;timestamp;temperature;humidity
22108;DHT22;11220;48.812;9.128;2023-02-28T00:01:23;16.10;65.00
22108;DHT22;11220;48.812;9.128;2023-02-28T00:03:49;16.10;65.00
22108;DHT22;11220;48.812;9.128;2023-02-28T00:06:15;16.10;65.00
22108;DHT22;11220;48.812;9.128;2023-02-28T00:08:41;16.10;65.10
22108;DHT22;11220;48.812;9.128;2023-02-28T00:11:12;16.10;65.10
22108;DHT22;11220;48.812;9.128;2023-02-28T00:13:41;16.10;65.10
22108;DHT22;11220;48.812;9.128;2023-02-28T00:16:10;16.10;65.10
22108;DHT22;11220;48.812;9.128;2023-02-28T00:18:36;16.10;65.10
22108;DHT22;11220;48.812;9.128;2023-02-28T00:21:02;16.00;65.00
22108;DHT22;11220;48.812;9.128;2023-02-28T00:23:27;16.00;65.00
22108;DHT22;11220;48.812;9.128;2023-02-28T00:25:53;16.00;65.00
22108;DHT22;11220;48.812;9.128;2023-02-28T00:28:20;16.00;65.00
22108;DHT22;11220;48.812;9.128;2023-02-28T00:30:45;16.10;65.10
22108;DHT22;11220;48.812;9.128;2023-02-28T00:33:11;16.00;65.10
22108;DHT22;11220;48.812;9.128;2023-02-28T00:35:37;16.00;65.10
22108;DHT22;11220;48.812;9.128;2023-02-28T00:38:02;16.00;65.10
22108;DHT22;11220;48.812;9.128;2023-02-28T00:40:28;16.00;65.10
22108;DHT22;11220;48.812;9.128;2023-02-28T00:42:54;15.90;65.10
22108;DHT22;11220;48.812;9.128;2023-02-28T00:45:20;16.00;65.10
22108;DHT22;11220;48.812;9.128;2023-02-28T00:47:45;16.00;66.10
22108;DHT22;11220;48.812;9.128;2023-02-28T00:50:16;15.90;65.00
22108;DHT22;11220;48.812;9.128;2023-02-28T00:52:41;15.90;65.10
22108;DHT22;11220;48.812;9.128;2023-02-28T00:55:07;15.90;65.10
22108;DHT22;11220;48.812;9.128;2023-02-28T00:57:33;16.00;65.10
22108;DHT22;11220;48.812;9.128;2023-02-28T00:59:58;15.90;65.10
22108;DHT22;11220;48.812;9.128;2023-02-28T01:02:24;15.90;65.10
22108;DHT22;11220;48.812;9.128;2023-02-28T01:04:49;15.90;65.10
22108;DHT22;11220;48.812;9.128;2023-02-28T01:07:15;15.90;65.10
22108;DHT22;11220;48.812;9.128;2023-02-28T01:09:41;15.90;65.10
22108;DHT22;11220;48.812;9.128;2023-02-28T01:12:08;15.80;65.10
22108;DHT22;11220;48.812;9.128;2023-02-28T01:14:34;15.90;65.10
22108;DHT22;11220;48.812;9.128;2023-02-28T01:17:00;15.90;65.10
22108;DHT22;11220;48.812;9.128;2023-02-28T01:19:25;15.90;65.10
22108;DHT22;11220;48.812;9.128;2023-02-28T01:21:51;15.90;65.10
22108;DHT22;11220;48.812;9.128;2023-02-28T01:24:16;15.80;65.00
22108;DHT22;11220;48.812;9.128;2023-02-28T01:26:42;15.80;65.10
22108;DHT22;11220;48.812;9.128;2023-02-28T01:29:07;15.80;65.00
22108;DHT22;11220;48.812;9.128;2023-02-28T01:31:33;15.80;65.00
22108;DHT22;11220;48.812;9.128;2023-02-28T01:33:58;15.80;65.10
22108;DHT22;11220;48.812;9.128;2023-02-28T01:36:25;15.80;65.10
22108;DHT22;11220;48.812;9.128;2023-02-28T01:38:51;15.80;65.10
22108;DHT22;11220;48.812;9.128;2023-02-28T01:41:25;15.80;65.10
22108;DHT22;11220;48.812;9.128;2023-02-28T01:46:22;15.80;65.10
22108;DHT22;11220;48.812;9.128;2023-02-28T01:48:54;15.80;65.10
22108;DHT22;11220;48.812;9.128;2023-02-28T01:51:37;15.80;65.10
22108;DHT22;11220;48.812;9.128;2023-02-28T01:54:13;15.70;65.20
22108;DHT22;11220;48.812;9.128;2023-02-28T01:56:45;15.70;65.10
22108;DHT22;11220;48.812;9.128;2023-02-28T01:59:14;15.70;65.00
22108;DHT22;11220;48.812;9.128;2023-02-28T02:01:41;15.70;66.00
22108;DHT22;11220;48.812;9.128;2023-02-28T02:04:07;15.70;65.10
22108;DHT22;11220;48.812;9.128;2023-02-28T02:06:40;15.70;65.20
22108;DHT22;11220;48.812;9.128;2023-02-28T02:09:06;15.70;65.20
22108;DHT22;11220;48.812;9.128;2023-02-28T02:11:32;15.70;65.10
22108;DHT22;11220;48.812;9.128;2023-02-28T02:22:39;15.60;65.10
22108;DHT22;11220;48.812;9.128;2023-02-28T02:25:19;15.60;65.10
22108;DHT22;11220;48.812;9.128;2023-02-28T02:30:50;15.60;65.10
22108;DHT22;11220;48.812;9.128;2023-02-28T02:33:35;15.60;65.10
22108;DHT22;11220;48.812;9.128;2023-02-28T02:36:18;15.60;65.10
22108;DHT22;11220;48.812;9.128;2023-02-28T02:41:28;15.60;65.10
22108;DHT22;11220;48.812;9.128;2023-02-28T02:44:16;15.60;65.10
22108;DHT22;11220;48.812;9.128;2023-02-28T02:46:44;15.60;65.10
22108;DHT22;11220;48.812;9.128;2023-02-28T02:49:19;15.60;65.10
22108;DHT22;11220;48.812;9.128;2023-02-28T02:51:46;15.60;65.10
22108;DHT22;11220;48.812;9.128;2023-02-28T02:54:20;15.60;65.20
22108;DHT22;11220;48.812;9.128;2023-02-28T02:56:48;15.60;65.20
22108;DHT22;11220;48.812;9.128;2023-02-28T02:59:17;15.60;65.10
22108;DHT22;11220;48.812;9.128;2023-02-28T03:01:52;15.60;65.20
22108;DHT22;11220;48.812;9.128;2023-02-28T03:04:23;15.60;65.20
22108;DHT22;11220;48.812;9.128;2023-02-28T03:06:51;15.50;65.10
22108;DHT22;11220;48.812;9.128;2023-02-28T03:09:23;15.60;65.20
22108;DHT22;11220;48.812;9.128;2023-02-28T03:11:51;15.50;65.10
22108;DHT22;11220;48.812;9.128;2023-02-28T03:14:40;15.50;65.10
22108;DHT22;11220;48.812;9.128;2023-02-28T03:17:23;15.50;65.20
22108;DHT22;11220;48.812;9.128;2023-02-28T03:23:16;15.50;65.20
22108;DHT22;11220;48.812;9.128;2023-02-28T03:31:29;15.50;65.20
22108;DHT22;11220;48.812;9.128;2023-02-28T03:34:10;15.50;65.30
22108;DHT22;11220;48.812;9.128;2023-02-28T03:36:41;15.50;65.20
22108;DHT22;11220;48.812;9.128;2023-02-28T03:39:31;15.50;65.30
22108;DHT22;11220;48.812;9.128;2023-02-28T03:42:06;15.50;65.20
22108;DHT22;11220;48.812;9.128;2023-02-28T03:47:20;15.50;65.10
22108;DHT22;11220;48.812;9.128;2023-02-28T03:49:54;15.50;65.10
22108;DHT22;11220;48.812;9.128;2023-02-28T03:52:24;15.50;65.20
22108;DHT22;11220;48.812;9.128;2023-02-28T03:54:54;15.40;65.10
22108;DHT22;11220;48.812;9.128;2023-02-28T03:57:50;15.50;65.00
22108;DHT22;11220;48.812;9.128;2023-02-28T04:00:27;15.40;65.10
22108;DHT22;11220;48.812;9.128;2023-02-28T04:02:54;15.40;64.80
22108;DHT22;11220;48.812;9.128;2023-02-28T04:05:21;15.40;65.00
22108;DHT22;11220;48.812;9.128;2023-02-28T04:07:47;15.40;64.90
22108;DHT22;11220;48.812;9.128;2023-02-28T04:10:13;15.40;64.80
22108;DHT22;11220;48.812;9.128;2023-02-28T04:12:39;15.40;64.90
22108;DHT22;11220;48.812;9.128;2023-02-28T04:15:05;15.40;64.80
22108;DHT22;11220;48.812;9.128;2023-02-28T04:17:31;15.40;64.80
22108;DHT22;11220;48.812;9.128;2023-02-28T04:19:57;15.40;64.70
22108;DHT22;11220;48.812;9.128;2023-02-28T04:22:22;15.40;64.70
22108;DHT22;11220;48.812;9.128;2023-02-28T04:24:51;15.40;64.70
22108;DHT22;11220;48.812;9.128;2023-02-28T04:27:16;15.30;64.70
22108;DHT22;11220;48.812;9.128;2023-02-28T04:29:42;15.40;64.80
22108;DHT22;11220;48.812;9.128;2023-02-28T04:32:10;15.40;64.60
22108;DHT22;11220;48.812;9.128;2023-02-28T04:34:35;15.40;64.50
22108;DHT22;11220;48.812;9.128;2023-02-28T04:37:01;15.40;64.50
22108;DHT22;11220;48.812;9.128;2023-02-28T04:39:28;15.40;64.50
22108;DHT22;11220;48.812;9.128;2023-02-28T04:41:55;15.30;64.40
22108;DHT22;11220;48.812;9.128;2023-02-28T04:44:21;15.40;64.50
22108;DHT22;11220;48.812;9.128;2023-02-28T04:46:48;15.30;64.50
22108;DHT22;11220;48.812;9.128;2023-02-28T04:49:13;15.30;64.50
22108;DHT22;11220;48.812;9.128;2023-02-28T04:51:39;15.30;64.50
22108;DHT22;11220;48.812;9.128;2023-02-28T04:54:05;15.30;64.40
22108;DHT22;11220;48.812;9.128;2023-02-28T04:56:31;15.30;64.30
22108;DHT22;11220;48.812;9.128;2023-02-28T04:58:56;15.30;64.30
22108;DHT22;11220;48.812;9.128;2023-02-28T05:01:30;15.30;64.40
22108;DHT22;11220;48.812;9.128;2023-02-28T05:03:59;15.30;64.30
22108;DHT22;11220;48.812;9.128;2023-02-28T05:06:26;15.30;64.20
22108;DHT22;11220;48.812;9.128;2023-02-28T05:08:52;15.30;65.20
22108;DHT22;11220;48.812;9.128;2023-02-28T05:11:31;15.30;64.20
22108;DHT22;11220;48.812;9.128;2023-02-28T05:14:18;15.30;64.20
22108;DHT22;11220;48.812;9.128;2023-02-28T05:16:44;15.30;64.20
22108;DHT22;11220;48.812;9.128;2023-02-28T05:19:09;15.30;64.30
22108;DHT22;11220;48.812;9.128;2023-02-28T05:24:05;15.30;64.30
22108;DHT22;11220;48.812;9.128;2023-02-28T05:26:33;15.30;64.30
22108;DHT22;11220;48.812;9.128;2023-02-28T05:28:59;15.30;64.30
22108;DHT22;11220;48.812;9.128;2023-02-28T05:31:24;15.30;64.20
22108;DHT22;11220;48.812;9.128;2023-02-28T05:33:50;15.30;64.20
22108;DHT22;11220;48.812;9.128;2023-02-28T05:36:16;15.30;64.10
22108;DHT22;11220;48.812;9.128;2023-02-28T05:38:42;15.30;64.00
22108;DHT22;11220;48.812;9.128;2023-02-28T05:41:09;15.30;63.80
22108;DHT22;11220;48.812;9.128;2023-02-28T05:43:35;15.30;63.90
22108;DHT22;11220;48.812;9.128;2023-02-28T05:46:03;15.30;63.80
22108;DHT22;11220;48.812;9.128;2023-02-28T05:48:29;15.30;63.90
22108;DHT22;11220;48.812;9.128;2023-02-28T05:50:57;15.30;64.10
22108;DHT22;11220;48.812;9.128;2023-02-28T05:53:23;15.30;65.10
22108;DHT22;11220;48.812;9.128;2023-02-28T05:55:48;15.30;64.10
22108;DHT22;11220;48.812;9.128;2023-02-28T05:58:14;15.30;64.20
22108;DHT22;11220;48.812;9.128;2023-02-28T06:00:39;15.30;64.40
22108;DHT22;11220;48.812;9.128;2023-02-28T06:03:05;15.30;64.60
22108;DHT22;11220;48.812;9.128;2023-02-28T06:05:30;15.30;64.70
22108;DHT22;11220;48.812;9.128;2023-02-28T06:07:56;15.40;64.90
22108;DHT22;11220;48.812;9.128;2023-02-28T06:10:21;15.40;65.10
22108;DHT22;11220;48.812;9.128;2023-02-28T06:12:47;15.40;65.20
22108;DHT22;11220;48.812;9.128;2023-02-28T06:15:14;15.40;65.30
22108;DHT22;11220;48.812;9.128;2023-02-28T06:17:41;15.40;65.40
22108;DHT22;11220;48.812;9.128;2023-02-28T06:20:07;15.50;65.50
22108;DHT22;11220;48.812;9.128;2023-02-28T06:22:34;15.50;65.60
22108;DHT22;11220;48.812;9.128;2023-02-28T06:25:00;15.50;65.60
22108;DHT22;11220;48.812;9.128;2023-02-28T06:27:26;15.50;65.70
22108;DHT22;11220;48.812;9.128;2023-02-28T06:29:54;15.50;65.60
22108;DHT22;11220;48.812;9.128;2023-02-28T06:32:21;15.60;66.70
22108;DHT22;11220;48.812;9.128;2023-02-28T06:34:46;15.60;65.60
22108;DHT22;11220;48.812;9.128;2023-02-28T06:37:12;15.60;65.60
22108;DHT22;11220;48.812;9.128;2023-02-28T06:39:37;15.60;65.60
22108;DHT22;11220;48.812;9.128;2023-02-28T06:42:03;15.70;65.60
22108;DHT22;11220;48.812;9.128;2023-02-28T06:44:29;15.70;65.60
22108;DHT22;11220;48.812;9.128;2023-02-28T06:47:04;15.70;65.50
22108;DHT22;11220;48.812;9.128;2023-02-28T06:49:31;15.70;65.50
22108;DHT22;11220;48.812;9.128;2023-02-28T06:51:57;15.80;65.50
22108;DHT22;11220;48.812;9.128;2023-02-28T06:54:23;15.80;65.50
22108;DHT22;11220;48.812;9.128;2023-02-28T06:56:48;15.80;66.50
22108;DHT22;11220;48.812;9.128;2023-02-28T06:59:14;15.90;65.50
22108;DHT22;11220;48.812;9.128;2023-02-28T07:01:40;15.90;65.50
22108;DHT22;11220;48.812;9.128;2023-02-28T07:04:06;15.90;65.40
22108;DHT22;11220;48.812;9.128;2023-02-28T07:06:32;15.90;65.30
22108;DHT22;11220;48.812;9.128;2023-02-28T07:08:57;16.00;65.40
22108;DHT22;11220;48.812;9.128;2023-02-28T07:11:25;16.00;65.30
22108;DHT22;11220;48.812;9.128;2023-02-28T07:13:55;16.00;65.30
22108;DHT22;11220;48.812;9.128;2023-02-28T07:16:22;16.00;65.30
22108;DHT22;11220;48.812;9.128;2023-02-28T07:18:48;16.00;65.20
22108;DHT22;11220;48.812;9.128;2023-02-28T07:21:14;16.10;65.30
22108;DHT22;11220;48.812;9.128;2023-02-28T07:23:39;16.10;65.30
22108;DHT22;11220;48.812;9.128;2023-02-28T07:26:07;16.10;65.40
22108;DHT22;11220;48.812;9.128;2023-02-28T07:28:33;16.10;65.40
22108;DHT22;11220;48.812;9.128;2023-02-28T07:31:04;16.10;66.30
22108;DHT22;11220;48.812;9.128;2023-02-28T07:33:30;16.20;65.50
22108;DHT22;11220;48.812;9.128;2023-02-28T07:36:04;16.20;65.40
22108;DHT22;11220;48.812;9.128;2023-02-28T07:38:30;16.20;65.40
22108;DHT22;11220;48.812;9.128;2023-02-28T07:40:55;16.20;65.50
22108;DHT22;11220;48.812;9.128;2023-02-28T07:43:21;16.20;65.40
22108;DHT22;11220;48.812;9.128;2023-02-28T07:45:46;16.30;65.50
22108;DHT22;11220;48.812;9.128;2023-02-28T07:48:12;16.30;65.40
22108;DHT22;11220;48.812;9.128;2023-02-28T07:50:37;16.30;65.40
22108;DHT22;11220;48.812;9.128;2023-02-28T07:53:03;16.30;65.40
22108;DHT22;11220;48.812;9.128;2023-02-28T07:55:29;16.40;65.50
22108;DHT22;11220;48.812;9.128;2023-02-28T07:57:57;16.40;65.50
22108;DHT22;11220;48.812;9.128;2023-02-28T08:00:23;16.40;65.40
22108;DHT22;11220;48.812;9.128;2023-02-28T08:02:49;16.40;65.40
22108;DHT22;11220;48.812;9.128;2023-02-28T08:05:15;16.40;65.40
22108;DHT22;11220;48.812;9.128;2023-02-28T08:07:41;16.40;65.40
22108;DHT22;11220;48.812;9.128;2023-02-28T08:10:07;16.50;65.40
22108;DHT22;11220;48.812;9.128;2023-02-28T08:12:35;16.50;65.40
22108;DHT22;11220;48.812;9.128;2023-02-28T08:15:00;16.50;65.40
22108;DHT22;11220;48.812;9.128;2023-02-28T08:17:26;16.50;65.40
22108;DHT22;11220;48.812;9.128;2023-02-28T08:19:51;16.50;65.40
22108;DHT22;11220;48.812;9.128;2023-02-28T08:22:17;16.60;65.50
22108;DHT22;11220;48.812;9.128;2023-02-28T08:24:43;16.60;65.40
22108;DHT22;11220;48.812;9.128;2023-02-28T08:27:09;16.60;65.40
22108;DHT22;11220;48.812;9.128;2023-02-28T08:29:37;16.60;65.30
22108;DHT22;11220;48.812;9.128;2023-02-28T08:32:04;16.60;65.30
22108;DHT22;11220;48.812;9.128;2023-02-28T08:34:30;16.70;65.30
22108;DHT22;11220;48.812;9.128;2023-02-28T08:36:55;16.80;65.30
22108;DHT22;11220;48.812;9.128;2023-02-28T08:39:21;16.70;65.10
22108;DHT22;11220;48.812;9.128;2023-02-28T08:41:46;16.80;65.20
22108;DHT22;11220;48.812;9.128;2023-02-28T08:44:12;16.80;65.10
22108;DHT22;11220;48.812;9.128;2023-02-28T08:46:38;16.80;65.00
22108;DHT22;11220;48.812;9.128;2023-02-28T08:49:03;16.80;64.90
22108;DHT22;11220;48.812;9.128;2023-02-28T08:51:29;16.80;64.90
22108;DHT22;11220;48.812;9.128;2023-02-28T08:53:58;16.80;64.90
22108;DHT22;11220;48.812;9.128;2023-02-28T08:56:25;16.90;65.00
22108;DHT22;11220;48.812;9.128;2023-02-28T08:58:51;16.90;64.90
22108;DHT22;11220;48.812;9.128;2023-02-28T09:01:22;16.90;64.90
22108;DHT22;11220;48.812;9.128;2023-02-28T09:03:50;16.90;64.80
22108;DHT22;11220;48.812;9.128;2023-02-28T09:06:17;16.90;64.80
22108;DHT22;11220;48.812;9.128;2023-02-28T09:08:43;16.90;64.70
22108;DHT22;11220;48.812;9.128;2023-02-28T09:11:10;17.00;64.80
22108;DHT22;11220;48.812;9.128;2023-02-28T09:13:36;17.00;64.80
22108;DHT22;11220;48.812;9.128;2023-02-28T09:16:03;17.00;64.80
22108;DHT22;11220;48.812;9.128;2023-02-28T09:18:29;17.10;64.70
22108;DHT22;11220;48.812;9.128;2023-02-28T09:20:55;17.10;64.70
22108;DHT22;11220;48.812;9.128;2023-02-28T09:23:21;17.10;64.70
22108;DHT22;11220;48.812;9.128;2023-02-28T09:25:51;17.10;64.60
22108;DHT22;11220;48.812;9.128;2023-02-28T09:28:18;17.10;64.50
22108;DHT22;11220;48.812;9.128;2023-02-28T09:30:45;17.10;64.50
22108;DHT22;11220;48.812;9.128;2023-02-28T09:33:11;17.20;64.50
22108;DHT22;11220;48.812;9.128;2023-02-28T09:35:37;17.20;64.40
22108;DHT22;11220;48.812;9.128;2023-02-28T09:38:03;17.20;64.50
22108;DHT22;11220;48.812;9.128;2023-02-28T09:40:29;17.20;64.50
22108;DHT22;11220;48.812;9.128;2023-02-28T09:42:56;17.20;64.50
22108;DHT22;11220;48.812;9.128;2023-02-28T09:45:41;17.30;64.70
22108;DHT22;11220;48.812;9.128;2023-02-28T09:48:23;17.20;64.70
22108;DHT22;11220;48.812;9.128;2023-02-28T09:50:59;17.20;64.70
22108;DHT22;11220;48.812;9.128;2023-02-28T09:53:29;17.30;64.80
22108;DHT22;11220;48.812;9.128;2023-02-28T09:58:48;17.30;64.80
22108;DHT22;11220;48.812;9.128;2023-02-28T10:04:16;17.30;64.80
22108;DHT22;11220;48.812;9.128;2023-02-28T10:06:49;17.30;64.70
22108;DHT22;11220;48.812;9.128;2023-02-28T10:09:32;17.30;64.80
22108;DHT22;11220;48.812;9.128;2023-02-28T10:12:04;17.40;64.70
22108;DHT22;11220;48.812;9.128;2023-02-28T10:14:34;17.30;64.60
22108;DHT22;11220;48.812;9.128;2023-02-28T10:17:13;17.30;64.70
22108;DHT22;11220;48.812;9.128;2023-02-28T10:20:19;17.30;64.70
22108;DHT22;11220;48.812;9.128;2023-02-28T10:23:02;17.40;65.00
22108;DHT22;11220;48.812;9.128;2023-02-28T10:25:35;17.40;65.10
22108;DHT22;11220;48.812;9.128;2023-02-28T10:28:14;17.40;65.10
22108;DHT22;11220;48.812;9.128;2023-02-28T10:30:45;17.40;65.10
22108;DHT22;11220;48.812;9.128;2023-02-28T10:33:23;17.40;65.10
22108;DHT22;11220;48.812;9.128;2023-02-28T10:35:49;17.40;65.20
22108;DHT22;11220;48.812;9.128;2023-02-28T10:38:18;17.40;65.20
22108;DHT22;11220;48.812;9.128;2023-02-28T10:40:44;17.40;65.30
22108;DHT22;11220;48.812;9.128;2023-02-28T10:45:39;17.40;65.50
22108;DHT22;11220;48.812;9.128;2023-02-28T10:56:01;17.50;65.90
22108;DHT22;11220;48.812;9.128;2023-02-28T11:03:48;17.50;66.10
22108;DHT22;11220;48.812;9.128;2023-02-28T11:06:22;17.50;66.10
22108;DHT22;11220;48.812;9.128;2023-02-28T11:08:56;17.50;66.20
22108;DHT22;11220;48.812;9.128;2023-02-28T11:11:26;17.60;66.20
22108;DHT22;11220;48.812;9.128;2023-02-28T11:13:55;17.60;66.20
22108;DHT22;11220;48.812;9.128;2023-02-28T11:16:22;17.60;66.30
22108;DHT22;11220;48.812;9.128;2023-02-28T11:18:57;17.50;66.20
22108;DHT22;11220;48.812;9.128;2023-02-28T11:21:24;17.60;66.40
22108;DHT22;11220;48.812;9.128;2023-02-28T11:23:54;17.60;66.30
22108;DHT22;11220;48.812;9.128;2023-02-28T11:26:43;17.60;66.40
22108;DHT22;11220;48.812;9.128;2023-02-28T11:29:12;17.60;66.40
22108;DHT22;11220;48.812;9.128;2023-02-28T11:31:41;17.60;66.40
22108;DHT22;11220;48.812;9.128;2023-02-28T11:34:24;17.60;66.40
22108;DHT22;11220;48.812;9.128;2023-02-28T11:36:51;17.70;67.40
22108;DHT22;11220;48.812;9.128;2023-02-28T11:39:17;17.70;66.50
22108;DHT22;11220;48.812;9.128;2023-02-28T11:53:02;17.70;66.40
22108;DHT22;11220;48.812;9.128;2023-02-28T11:55:37;17.80;66.30
22108;DHT22;11220;48.812;9.128;2023-02-28T11:58:26;17.80;66.30
22108;DHT22;11220;48.812;9.128;2023-02-28T12:01:13;17.80;66.30
22108;DHT22;11220;48.812;9.128;2023-02-28T12:03:56;17.80;66.20
22108;DHT22;11220;48.812;9.128;2023-02-28T12:09:40;17.90;66.30
22108;DHT22;11220;48.812;9.128;2023-02-28T12:12:38;17.80;66.20
22108;DHT22;11220;48.812;9.128;2023-02-28T12:18:21;17.90;66.40
22108;DHT22;11220;48.812;9.128;2023-02-28T12:21:01;17.90;66.10
22108;DHT22;11220;48.812;9.128;2023-02-28T12:31:51;18.00;66.20
22108;DHT22;11220;48.812;9.128;2023-02-28T12:34:20;18.00;66.10
22108;DHT22;11220;48.812;9.128;2023-02-28T12:36:48;18.00;66.10
22108;DHT22;11220;48.812;9.128;2023-02-28T12:39:20;18.00;66.20
22108;DHT22;11220;48.812;9.128;2023-02-28T12:41:56;18.00;66.20
22108;DHT22;11220;48.812;9.128;2023-02-28T12:44:38;18.00;66.10
22108;DHT22;11220;48.812;9.128;2023-02-28T12:47:04;18.10;66.20
22108;DHT22;11220;48.812;9.128;2023-02-28T12:49:36;18.10;66.30
22108;DHT22;11220;48.812;9.128;2023-02-28T12:52:04;18.10;66.70
22108;DHT22;11220;48.812;9.128;2023-02-28T12:54:44;18.20;66.30
22108;DHT22;11220;48.812;9.128;2023-02-28T13:00:23;18.20;66.30
22108;DHT22;11220;48.812;9.128;2023-02-28T13:03:06;18.30;66.20
22108;DHT22;11220;48.812;9.128;2023-02-28T13:11:37;18.30;65.70
22108;DHT22;11220;48.812;9.128;2023-02-28T13:14:16;18.30;65.60
22108;DHT22;11220;48.812;9.128;2023-02-28T13:16:57;18.40;65.60
22108;DHT22;11220;48.812;9.128;2023-02-28T13:19:30;18.40;65.50
22108;DHT22;11220;48.812;9.128;2023-02-28T13:21:57;18.40;65.50
22108;DHT22;11220;48.812;9.128;2023-02-28T13:24:39;18.40;65.50
22108;DHT22;11220;48.812;9.128;2023-02-28T13:29:32;18.50;65.60
22108;DHT22;11220;48.812;9.128;2023-02-28T13:34:32;18.60;65.60
22108;DHT22;11220;48.812;9.128;2023-02-28T13:42:47;18.70;65.30
22108;DHT22;11220;48.812;9.128;2023-02-28T13:45:28;18.70;65.20
22108;DHT22;11220;48.812;9.128;2023-02-28T13:48:16;18.80;65.30
22108;DHT22;11220;48.812;9.128;2023-02-28T13:50:44;18.80;65.20
22108;DHT22;11220;48.812;9.128;2023-02-28T13:59:16;19.00;65.10
22108;DHT22;11220;48.812;9.128;2023-02-28T14:06:57;19.10;65.10
22108;DHT22;11220;48.812;9.128;2023-02-28T14:09:29;19.10;65.20
22108;DHT22;11220;48.812;9.128;2023-02-28T14:11:55;19.10;65.10
22108;DHT22;11220;48.812;9.128;2023-02-28T14:17:03;19.20;65.20
22108;DHT22;11220;48.812;9.128;2023-02-28T14:19:32;19.20;65.30
22108;DHT22;11220;48.812;9.128;2023-02-28T14:27:33;19.40;65.60
22108;DHT22;11220;48.812;9.128;2023-02-28T14:33:01;19.50;65.60
22108;DHT22;11220;48.812;9.128;2023-02-28T14:38:27;19.50;65.50
22108;DHT22;11220;48.812;9.128;2023-02-28T14:40:57;19.60;65.50
22108;DHT22;11220;48.812;9.128;2023-02-28T14:43:28;19.60;65.40
22108;DHT22;11220;48.812;9.128;2023-02-28T14:45:59;19.60;65.30
22108;DHT22;11220;48.812;9.128;2023-02-28T14:48:25;19.60;65.20
22108;DHT22;11220;48.812;9.128;2023-02-28T14:50:54;19.70;65.20
22108;DHT22;11220;48.812;9.128;2023-02-28T14:53:22;19.70;64.90
22108;DHT22;11220;48.812;9.128;2023-02-28T14:55:49;19.70;64.80
22108;DHT22;11220;48.812;9.128;2023-02-28T14:58:25;19.70;64.70
22108;DHT22;11220;48.812;9.128;2023-02-28T15:00:53;19.80;64.60
22108;DHT22;11220;48.812;9.128;2023-02-28T15:03:23;19.80;64.40
22108;DHT22;11220;48.812;9.128;2023-02-28T15:05:55;19.80;64.30
22108;DHT22;11220;48.812;9.128;2023-02-28T15:08:21;19.80;64.20
22108;DHT22;11220;48.812;9.128;2023-02-28T15:10:56;19.80;64.00
22108;DHT22;11220;48.812;9.128;2023-02-28T15:13:24;19.90;64.00
22108;DHT22;11220;48.812;9.128;2023-02-28T15:15:53;19.90;63.90
22108;DHT22;11220;48.812;9.128;2023-02-28T15:21:07;19.90;63.60
22108;DHT22;11220;48.812;9.128;2023-02-28T15:23:34;19.90;63.60
22108;DHT22;11220;48.812;9.128;2023-02-28T15:26:01;19.90;63.50
22108;DHT22;11220;48.812;9.128;2023-02-28T15:28:27;19.90;63.60
22108;DHT22;11220;48.812;9.128;2023-02-28T15:30:59;19.90;63.50
22108;DHT22;11220;48.812;9.128;2023-02-28T15:33:27;19.90;63.40
22108;DHT22;11220;48.812;9.128;2023-02-28T15:38:36;19.60;56.60
22108;DHT22;11220;48.812;9.128;2023-02-28T15:41:02;19.40;57.60
22108;DHT22;11220;48.812;9.128;2023-02-28T15:43:37;19.20;58.80
22108;DHT22;11220;48.812;9.128;2023-02-28T15:46:11;19.20;59.60
22108;DHT22;11220;48.812;9.128;2023-02-28T15:48:51;19.20;60.10
22108;DHT22;11220;48.812;9.128;2023-02-28T15:51:22;19.20;60.60
22108;DHT22;11220;48.812;9.128;2023-02-28T15:54:10;19.30;60.90
22108;DHT22;11220;48.812;9.128;2023-02-28T15:56:45;19.30;61.10
22108;DHT22;11220;48.812;9.128;2023-02-28T15:59:17;19.30;61.10
22108;DHT22;11220;48.812;9.128;2023-02-28T16:01:43;19.30;61.30
22108;DHT22;11220;48.812;9.128;2023-02-28T16:04:18;19.40;61.50
22108;DHT22;11220;48.812;9.128;2023-02-28T16:06:46;19.40;61.60
22108;DHT22;11220;48.812;9.128;2023-02-28T16:09:15;19.30;61.60
22108;DHT22;11220;48.812;9.128;2023-02-28T16:11:49;19.30;61.70
22108;DHT22;11220;48.812;9.128;2023-02-28T16:14:19;19.30;61.90
22108;DHT22;11220;48.812;9.128;2023-02-28T16:16:46;19.30;62.00
22108;DHT22;11220;48.812;9.128;2023-02-28T16:19:13;19.30;62.10
22108;DHT22;11220;48.812;9.128;2023-02-28T16:21:39;19.30;62.30
22108;DHT22;11220;48.812;9.128;2023-02-28T16:24:05;19.30;62.30
22108;DHT22;11220;48.812;9.128;2023-02-28T16:26:30;19.20;62.40
22108;DHT22;11220;48.812;9.128;2023-02-28T16:29:00;19.20;62.50
22108;DHT22;11220;48.812;9.128;2023-02-28T16:31:25;19.10;62.50
22108;DHT22;11220;48.812;9.128;2023-02-28T16:33:51;19.10;62.60
22108;DHT22;11220;48.812;9.128;2023-02-28T16:36:20;19.10;62.70
22108;DHT22;11220;48.812;9.128;2023-02-28T16:38:45;19.10;62.70
22108;DHT22;11220;48.812;9.128;2023-02-28T16:41:26;19.10;62.70
22108;DHT22;11220;48.812;9.128;2023-02-28T16:43:54;19.00;62.70
22108;DHT22;11220;48.812;9.128;2023-02-28T16:46:31;19.00;62.80
22108;DHT22;11220;48.812;9.128;2023-02-28T16:48:58;19.00;62.90
22108;DHT22;11220;48.812;9.128;2023-02-28T16:51:23;19.00;62.90
22108;DHT22;11220;48.812;9.128;2023-02-28T16:53:49;18.90;63.00
22108;DHT22;11220;48.812;9.128;2023-02-28T16:56:20;18.90;63.00
22108;DHT22;11220;48.812;9.128;2023-02-28T16:58:47;18.90;63.10
22108;DHT22;11220;48.812;9.128;2023-02-28T17:01:14;18.90;63.10
22108;DHT22;11220;48.812;9.128;2023-02-28T17:03:40;18.80;63.10
22108;DHT22;11220;48.812;9.128;2023-02-28T17:06:10;18.80;63.20
22108;DHT22;11220;48.812;9.128;2023-02-28T17:08:38;18.80;63.30
22108;DHT22;11220;48.812;9.128;2023-02-28T17:11:03;18.70;63.20
22108;DHT22;11220;48.812;9.128;2023-02-28T17:13:29;18.70;63.30
22108;DHT22;11220;48.812;9.128;2023-02-28T17:15:55;18.70;63.30
22108;DHT22;11220;48.812;9.128;2023-02-28T17:18:21;18.60;58.90
22108;DHT22;11220;48.812;9.128;2023-02-28T17:20:47;18.30;55.40
22108;DHT22;11220;48.812;9.128;2023-02-28T17:23:12;18.10;57.90
22108;DHT22;11220;48.812;9.128;2023-02-28T17:25:38;18.00;57.10
22108;DHT22;11220;48.812;9.128;2023-02-28T17:28:04;17.90;58.60
22108;DHT22;11220;48.812;9.128;2023-02-28T17:30:34;17.80;57.50
22108;DHT22;11220;48.812;9.128;2023-02-28T17:32:59;17.70;57.50
22108;DHT22;11220;48.812;9.128;2023-02-28T17:35:25;17.70;59.30
22108;DHT22;11220;48.812;9.128;2023-02-28T17:37:52;17.70;59.90
22108;DHT22;11220;48.812;9.128;2023-02-28T17:40:21;17.80;60.50
22108;DHT22;11220;48.812;9.128;2023-02-28T17:42:47;17.80;60.80
22108;DHT22;11220;48.812;9.128;2023-02-28T17:45:14;17.90;61.10
22108;DHT22;11220;48.812;9.128;2023-02-28T17:47:41;17.90;61.10
22108;DHT22;11220;48.812;9.128;2023-02-28T17:50:12;17.90;61.20
22108;DHT22;11220;48.812;9.128;2023-02-28T17:52:39;17.90;61.20